createdAt,value
2023-12-07T00:02:06.284Z,5.97
2023-12-07T00:04:34.313Z,6.43
2023-12-07T00:07:04.398Z,5.75
2023-12-07T00:09:33.501Z,5.25
2023-12-07T00:12:01.309Z,5.75
2023-12-07T00:14:31.278Z,6.60
2023-12-07T00:16:59.317Z,6.10
2023-12-07T00:19:27.023Z,5.55
2023-12-07T00:21:57.136Z,5.65
2023-12-07T00:24:24.833Z,6.05
2023-12-07T00:26:53.924Z,4.60
2023-12-07T00:29:21.592Z,5.95
2023-12-07T00:31:49.292Z,5.53
2023-12-07T00:34:18.510Z,5.55
2023-12-07T00:36:48.474Z,6.07
2023-12-07T00:39:17.017Z,5.22
2023-12-07T00:41:48.013Z,4.72
2023-12-07T00:44:17.190Z,5.57
2023-12-07T00:46:44.866Z,5.07
2023-12-07T00:49:13.468Z,6.28
2023-12-07T00:51:41.286Z,5.90
2023-12-07T00:54:09.191Z,6.43
2023-12-07T00:56:38.535Z,6.90
2023-12-07T00:59:06.421Z,7.43
2023-12-07T01:01:35.538Z,6.30
2023-12-07T01:04:03.226Z,6.15
2023-12-07T01:06:31.074Z,5.90
2023-12-07T01:08:58.780Z,6.10
2023-12-07T01:11:28.546Z,6.05
2023-12-07T01:13:56.273Z,6.32
2023-12-07T01:16:23.993Z,6.18
2023-12-07T01:18:53.022Z,6.68
2023-12-07T01:21:20.902Z,6.57
2023-12-07T01:23:49.590Z,6.50
2023-12-07T01:26:22.665Z,6.65
2023-12-07T01:28:50.424Z,6.57
2023-12-07T01:31:18.239Z,6.75
2023-12-07T01:33:48.451Z,7.38
2023-12-07T01:36:17.592Z,6.85
2023-12-07T01:38:45.623Z,6.93
2023-12-07T01:41:13.317Z,5.93
2023-12-07T01:43:47.123Z,5.68
2023-12-07T01:50:48.167Z,7.25
2023-12-07T01:54:06.910Z,7.65
2023-12-07T02:14:33.421Z,7.50
2023-12-07T02:24:55.488Z,6.32
2023-12-07T02:28:11.493Z,7.88
2023-12-07T02:34:33.283Z,8.00
2023-12-07T02:37:55.919Z,6.47
2023-12-07T02:45:14.398Z,6.43
2023-12-07T02:57:32.593Z,6.90
2023-12-07T03:00:37.272Z,7.07
2023-12-07T03:03:25.983Z,6.43
2023-12-07T03:06:24.104Z,7.68
2023-12-07T03:09:04.356Z,7.55
2023-12-07T03:11:51.270Z,7.10
2023-12-07T03:14:41.345Z,7.20
2023-12-07T03:17:24.130Z,7.88
2023-12-07T03:20:14.296Z,6.75
2023-12-07T03:23:04.794Z,8.00
2023-12-07T03:26:03.463Z,8.35
2023-12-07T03:28:53.001Z,7.20
2023-12-07T03:31:39.480Z,7.13
2023-12-07T03:34:18.448Z,7.80
2023-12-07T03:37:02.321Z,7.78
2023-12-07T03:39:40.883Z,6.28
2023-12-07T03:42:49.797Z,7.32
2023-12-07T03:45:35.065Z,6.70
2023-12-07T03:48:22.273Z,7.82
2023-12-07T03:50:54.410Z,7.43
2023-12-07T03:53:35.432Z,6.53
2023-12-07T03:56:18.517Z,6.70
2023-12-07T03:58:56.210Z,5.60
2023-12-07T04:01:43.680Z,6.70
2023-12-07T04:07:18.841Z,5.53
2023-12-07T04:09:54.505Z,5.75
2023-12-07T04:12:42.834Z,5.47
2023-12-07T04:15:19.746Z,5.97
2023-12-07T04:17:52.675Z,5.22
2023-12-07T04:20:26.957Z,5.78
2023-12-07T04:23:02.513Z,6.03
2023-12-07T04:25:31.891Z,5.07
2023-12-07T04:27:59.614Z,6.32
2023-12-07T04:30:27.349Z,4.88
2023-12-07T04:32:55.113Z,6.20
2023-12-07T04:35:22.918Z,5.50
2023-12-07T04:37:50.573Z,5.15
2023-12-07T04:40:19.755Z,5.60
2023-12-07T04:42:47.485Z,5.88
2023-12-07T04:45:15.276Z,5.20
2023-12-07T04:47:46.125Z,5.53
2023-12-07T04:50:16.336Z,5.50
2023-12-07T04:52:44.105Z,6.55
2023-12-07T04:55:11.874Z,5.85
2023-12-07T04:57:40.971Z,5.47
2023-12-07T05:00:11.163Z,5.07
2023-12-07T05:02:40.250Z,5.15
2023-12-07T05:05:11.195Z,4.50
2023-12-07T05:07:42.707Z,4.57
2023-12-07T05:10:11.260Z,5.03
2023-12-07T05:12:39.114Z,6.35
2023-12-07T05:15:09.548Z,6.13
2023-12-07T05:17:37.315Z,5.13
2023-12-07T05:20:07.134Z,5.43
2023-12-07T05:22:34.885Z,4.95
2023-12-07T05:25:05.966Z,5.68
2023-12-07T05:27:33.719Z,6.05
2023-12-07T05:30:04.061Z,4.90
2023-12-07T05:32:33.328Z,4.88
2023-12-07T05:35:03.319Z,5.75
2023-12-07T05:37:33.711Z,5.38
2023-12-07T05:40:02.216Z,5.72
2023-12-07T05:42:29.977Z,5.55
2023-12-07T05:44:57.752Z,5.70
2023-12-07T05:47:28.314Z,5.68
2023-12-07T05:49:58.714Z,6.40
2023-12-07T05:52:29.049Z,12.27
2023-12-07T05:54:57.170Z,15.25
2023-12-07T05:57:24.830Z,18.58
2023-12-07T05:59:52.538Z,13.70
2023-12-07T06:02:20.202Z,12.35
2023-12-07T06:04:51.054Z,12.10
2023-12-07T06:07:23.155Z,9.25
2023-12-07T06:09:50.960Z,4.22
2023-12-07T06:12:23.301Z,4.10
2023-12-07T06:14:51.585Z,4.78
2023-12-07T06:17:19.271Z,4.25
2023-12-07T06:19:47.049Z,6.55
2023-12-07T06:22:15.279Z,5.93
2023-12-07T06:24:45.052Z,3.88
2023-12-07T06:27:12.781Z,4.13
2023-12-07T06:29:40.770Z,3.22
2023-12-07T06:32:10.746Z,2.70
2023-12-07T06:34:41.627Z,3.47
2023-12-07T06:37:12.953Z,4.53
2023-12-07T06:39:40.794Z,3.95
2023-12-07T06:42:12.152Z,2.70
2023-12-07T06:44:40.034Z,2.63
2023-12-07T06:47:10.725Z,1.83
2023-12-07T06:49:47.226Z,3.08
2023-12-07T06:52:20.121Z,3.10
2023-12-07T06:54:47.869Z,2.78
2023-12-07T06:57:17.010Z,3.42
2023-12-07T06:59:45.803Z,3.17
2023-12-07T07:02:13.596Z,3.55
2023-12-07T07:04:41.320Z,2.80
2023-12-07T07:07:09.091Z,2.40
2023-12-07T07:09:36.831Z,2.42
2023-12-07T07:12:06.223Z,2.70
2023-12-07T07:14:35.455Z,2.25
2023-12-07T07:17:03.159Z,2.42
2023-12-07T07:19:31.308Z,2.00
2023-12-07T07:21:59.047Z,1.90
2023-12-07T07:24:26.688Z,1.95
2023-12-07T07:26:54.416Z,2.38
2023-12-07T07:29:26.578Z,1.80
2023-12-07T07:31:58.786Z,1.70
2023-12-07T07:34:27.146Z,1.33
2023-12-07T07:36:55.103Z,2.13
2023-12-07T07:39:22.890Z,2.10
2023-12-07T07:41:50.609Z,1.65
2023-12-07T07:44:20.584Z,1.92
2023-12-07T07:46:50.903Z,1.73
2023-12-07T07:49:21.579Z,1.83
2023-12-07T07:51:49.313Z,1.90
2023-12-07T07:54:19.336Z,1.40
2023-12-07T07:56:47.031Z,1.20
2023-12-07T07:59:17.350Z,1.30
2023-12-07T08:01:45.871Z,1.63
2023-12-07T08:04:13.668Z,2.00
2023-12-07T08:06:42.764Z,2.25
2023-12-07T08:09:12.780Z,2.10
2023-12-07T08:11:40.717Z,2.17
2023-12-07T08:14:10.850Z,3.53
2023-12-07T08:16:38.892Z,8.20
2023-12-07T08:19:06.742Z,6.03
2023-12-07T08:21:34.485Z,3.55
2023-12-07T08:24:03.628Z,2.90
2023-12-07T08:26:31.388Z,2.38
2023-12-07T08:28:59.029Z,2.40
2023-12-07T08:31:26.874Z,2.33
2023-12-07T08:33:57.645Z,3.47
2023-12-07T08:36:27.714Z,3.47
2023-12-07T08:38:55.810Z,2.78
2023-12-07T08:41:24.833Z,2.67
2023-12-07T08:43:52.546Z,3.13
2023-12-07T08:46:20.277Z,2.70
2023-12-07T08:48:48.056Z,2.13
2023-12-07T08:51:15.838Z,2.30
2023-12-07T08:53:43.646Z,2.60
2023-12-07T08:56:11.603Z,2.75
2023-12-07T08:58:43.310Z,3.17
2023-12-07T09:01:19.783Z,2.67
2023-12-07T09:03:53.981Z,2.42
2023-12-07T09:06:21.804Z,2.10
2023-12-07T09:08:49.515Z,2.33
2023-12-07T09:11:20.102Z,2.10
2023-12-07T09:13:49.246Z,1.48
2023-12-07T09:16:16.942Z,1.77
2023-12-07T09:18:46.289Z,1.70
2023-12-07T09:21:14.270Z,1.20
2023-12-07T09:23:42.566Z,1.35
2023-12-07T09:26:10.690Z,1.58
2023-12-07T09:28:40.802Z,1.48
2023-12-07T09:31:09.958Z,1.40
2023-12-07T09:33:37.796Z,1.85
2023-12-07T09:36:09.379Z,1.50
2023-12-07T09:38:39.539Z,0.95
2023-12-07T09:41:09.570Z,1.20
2023-12-07T09:43:37.339Z,1.20
2023-12-07T09:46:05.721Z,1.95
2023-12-07T09:48:39.359Z,1.95
2023-12-07T09:51:08.336Z,1.42
2023-12-07T09:53:36.770Z,1.30
2023-12-07T09:56:04.617Z,1.75
2023-12-07T09:58:38.633Z,2.25
2023-12-07T10:01:09.250Z,1.73
2023-12-07T10:03:40.470Z,2.40
2023-12-07T10:06:08.440Z,2.22
2023-12-07T10:08:37.588Z,1.30
2023-12-07T10:11:06.240Z,1.40
2023-12-07T10:13:37.361Z,1.13
2023-12-07T10:16:10.114Z,1.30
2023-12-07T10:18:39.379Z,1.20
2023-12-07T10:21:11.295Z,1.15
2023-12-07T10:23:39.568Z,1.40
2023-12-07T10:26:07.587Z,1.50
2023-12-07T10:28:36.918Z,1.30
2023-12-07T10:31:04.868Z,1.23
2023-12-07T10:33:35.620Z,0.90
2023-12-07T10:36:05.570Z,0.73
2023-12-07T10:38:34.644Z,0.63
2023-12-07T10:41:06.237Z,1.10
2023-12-07T10:43:36.930Z,0.80
2023-12-07T10:46:05.210Z,1.10
2023-12-07T10:48:35.815Z,1.42
2023-12-07T10:51:10.016Z,1.17
2023-12-07T10:53:45.251Z,1.20
2023-12-07T10:56:17.978Z,1.65
2023-12-07T10:58:46.016Z,1.20
2023-12-07T11:01:14.994Z,1.13
2023-12-07T11:03:45.619Z,1.20
2023-12-07T11:06:13.331Z,1.05
2023-12-07T11:08:44.445Z,0.90
2023-12-07T11:11:14.835Z,0.77
2023-12-07T11:13:47.511Z,0.60
2023-12-07T11:16:15.595Z,0.68
2023-12-07T11:18:43.586Z,0.80
2023-12-07T11:21:12.004Z,0.57
2023-12-07T11:23:39.651Z,0.90
2023-12-07T11:26:08.860Z,0.93
2023-12-07T11:28:37.204Z,0.88
2023-12-07T11:31:05.265Z,0.95
2023-12-07T11:33:33.126Z,0.70
2023-12-07T11:36:08.380Z,0.75
2023-12-07T11:38:36.109Z,0.75
2023-12-07T11:41:04.628Z,0.90
2023-12-07T11:43:44.896Z,0.80
2023-12-07T11:46:15.265Z,1.10
2023-12-07T11:48:51.670Z,0.65
2023-12-07T11:51:22.072Z,1.00
2023-12-07T11:53:52.272Z,1.00
2023-12-07T11:56:22.924Z,1.40
2023-12-07T11:58:53.945Z,0.77
2023-12-07T12:01:22.036Z,4.10
2023-12-07T12:03:49.826Z,3.33
2023-12-07T12:06:18.819Z,2.47
2023-12-07T12:08:46.631Z,2.90
2023-12-07T12:11:14.357Z,2.50
2023-12-07T12:13:42.608Z,3.10
2023-12-07T12:16:11.943Z,2.70
2023-12-07T12:18:39.944Z,2.15
2023-12-07T12:21:09.103Z,2.20
2023-12-07T12:23:37.658Z,1.85
2023-12-07T12:26:08.516Z,1.52
2023-12-07T12:28:42.168Z,1.35
2023-12-07T12:31:12.508Z,0.93
2023-12-07T12:33:40.425Z,1.27
2023-12-07T12:36:11.463Z,0.70
2023-12-07T12:38:43.228Z,0.77
2023-12-07T12:41:14.880Z,1.00
2023-12-07T12:43:43.917Z,0.80
2023-12-07T12:46:13.707Z,1.20
2023-12-07T12:48:54.859Z,0.80
2023-12-07T12:51:26.271Z,0.90
2023-12-07T12:53:54.301Z,1.40
2023-12-07T12:56:22.576Z,1.17
2023-12-07T12:58:51.000Z,1.13
2023-12-07T13:01:21.924Z,1.20
2023-12-07T13:03:50.074Z,1.00
2023-12-07T13:06:20.361Z,1.30
2023-12-07T13:08:48.848Z,1.10
2023-12-07T13:11:20.343Z,0.98
2023-12-07T13:13:49.371Z,1.90
2023-12-07T13:16:22.337Z,1.10
2023-12-07T13:18:50.187Z,0.80
2023-12-07T13:21:18.203Z,0.90
2023-12-07T13:23:47.469Z,0.90
2023-12-07T13:26:15.639Z,1.10
2023-12-07T13:28:43.564Z,1.17
2023-12-07T13:31:11.353Z,1.05
2023-12-07T13:33:50.138Z,1.00
2023-12-07T13:36:25.315Z,0.80
2023-12-07T13:38:53.334Z,0.98
2023-12-07T13:41:23.282Z,1.00
2023-12-07T13:43:51.459Z,0.70
2023-12-07T13:46:19.288Z,1.25
2023-12-07T13:48:48.841Z,0.73
2023-12-07T13:51:19.235Z,1.00
2023-12-07T13:53:46.940Z,1.13
2023-12-07T13:56:14.620Z,1.23
2023-12-07T13:58:42.329Z,0.98
2023-12-07T14:01:10.268Z,0.90
2023-12-07T14:03:40.184Z,1.05
2023-12-07T14:06:15.505Z,1.15
2023-12-07T14:08:49.586Z,1.13
2023-12-07T14:11:17.244Z,0.98
2023-12-07T14:13:47.536Z,0.98
2023-12-07T14:16:20.129Z,1.00
2023-12-07T14:19:05.006Z,0.80
2023-12-07T14:21:54.622Z,1.05
2023-12-07T14:24:23.939Z,1.30
2023-12-07T14:26:54.133Z,1.15
2023-12-07T14:29:26.815Z,1.30
2023-12-07T14:31:58.086Z,1.42
2023-12-07T14:34:34.249Z,2.22
2023-12-07T14:37:07.390Z,1.60
2023-12-07T14:39:36.117Z,1.23
2023-12-07T14:42:05.548Z,2.28
2023-12-07T14:44:36.099Z,2.00
2023-12-07T14:47:03.943Z,1.75
2023-12-07T14:49:31.862Z,2.90
2023-12-07T14:52:00.513Z,1.60
2023-12-07T14:54:32.285Z,1.10
2023-12-07T14:57:04.197Z,1.15
2023-12-07T14:59:32.123Z,1.33
2023-12-07T15:01:59.715Z,1.52
2023-12-07T15:04:31.749Z,1.63
2023-12-07T15:07:02.344Z,1.80
2023-12-07T15:09:36.085Z,1.98
2023-12-07T15:12:04.601Z,2.13
2023-12-07T15:14:37.663Z,1.98
2023-12-07T15:17:09.997Z,1.48
2023-12-07T15:19:41.765Z,1.10
2023-12-07T15:22:09.994Z,1.20
2023-12-07T15:24:41.574Z,1.02
2023-12-07T15:27:09.799Z,1.00
2023-12-07T15:29:38.644Z,2.40
2023-12-07T15:32:09.177Z,2.42
2023-12-07T15:34:39.929Z,3.53
2023-12-07T15:37:11.128Z,4.55
2023-12-07T15:39:43.164Z,3.70
2023-12-07T15:42:11.366Z,5.38
2023-12-07T15:44:39.323Z,3.72
2023-12-07T15:47:09.309Z,3.88
2023-12-07T15:49:37.313Z,3.90
2023-12-07T15:52:05.509Z,3.60
2023-12-07T15:54:38.818Z,3.55
2023-12-07T15:57:11.741Z,3.13
2023-12-07T15:59:40.566Z,3.00
2023-12-07T16:02:11.238Z,2.58
2023-12-07T16:04:39.731Z,2.13
2023-12-07T16:07:09.816Z,2.40
2023-12-07T16:09:39.420Z,3.92
2023-12-07T16:12:08.506Z,4.15
2023-12-07T16:14:38.335Z,3.10
2023-12-07T16:17:06.550Z,3.10
2023-12-07T16:19:34.419Z,2.92
2023-12-07T16:22:04.281Z,3.67
2023-12-07T16:24:32.501Z,2.17
2023-12-07T16:27:03.206Z,2.38
2023-12-07T16:29:32.988Z,1.70
2023-12-07T16:32:02.103Z,2.33
2023-12-07T16:34:29.952Z,1.92
2023-12-07T16:36:59.841Z,2.22
2023-12-07T16:39:27.552Z,2.78
2023-12-07T16:42:02.060Z,3.22
2023-12-07T16:44:31.222Z,3.00
2023-12-07T16:46:59.005Z,2.45
2023-12-07T16:49:30.799Z,2.05
2023-12-07T16:51:58.851Z,1.75
2023-12-07T16:54:26.676Z,2.20
2023-12-07T16:56:54.700Z,2.58
2023-12-07T16:59:22.466Z,3.42
2023-12-07T17:01:50.094Z,3.90
2023-12-07T17:04:19.531Z,3.25
2023-12-07T17:06:56.593Z,2.90
2023-12-07T17:09:26.204Z,2.33
2023-12-07T17:11:57.138Z,2.35
2023-12-07T17:14:25.217Z,8.45
2023-12-07T17:16:53.233Z,6.55
2023-12-07T17:19:21.503Z,3.80
2023-12-07T17:21:51.512Z,3.05
2023-12-07T17:24:21.278Z,3.00
2023-12-07T17:26:54.088Z,3.22
2023-12-07T17:29:25.337Z,2.47
2023-12-07T17:31:53.456Z,3.25
2023-12-07T17:34:21.570Z,5.10
2023-12-07T17:36:49.534Z,3.25
2023-12-07T17:39:17.252Z,2.92
2023-12-07T17:41:48.932Z,2.58
2023-12-07T17:44:16.834Z,2.95
2023-12-07T17:46:44.503Z,3.00
2023-12-07T17:49:12.442Z,2.35
2023-12-07T17:51:40.747Z,1.92
2023-12-07T17:54:11.025Z,2.45
2023-12-07T17:56:41.165Z,2.72
2023-12-07T17:59:12.425Z,2.60
2023-12-07T18:01:42.238Z,7.32
2023-12-07T18:04:12.860Z,5.90
2023-12-07T18:06:42.952Z,7.18
2023-12-07T18:09:14.724Z,6.07
2023-12-07T18:11:42.371Z,3.50
2023-12-07T18:14:13.775Z,5.53
2023-12-07T18:16:41.386Z,2.42
2023-12-07T18:19:09.323Z,3.70
2023-12-07T18:21:37.096Z,3.22
2023-12-07T18:24:04.941Z,4.82
2023-12-07T18:26:36.038Z,5.60
2023-12-07T18:29:03.831Z,5.63
2023-12-07T18:31:32.962Z,5.00
2023-12-07T18:34:00.896Z,5.03
2023-12-07T18:36:28.814Z,4.30
2023-12-07T18:38:56.540Z,3.25
2023-12-07T18:41:24.485Z,3.33
2023-12-07T18:43:53.122Z,2.45
2023-12-07T18:46:20.715Z,2.70
2023-12-07T18:48:49.778Z,2.22
2023-12-07T18:51:17.747Z,2.70
2023-12-07T18:53:45.410Z,3.03
2023-12-07T18:56:13.265Z,5.32
2023-12-07T18:58:40.932Z,6.03
2023-12-07T19:01:08.601Z,4.30
2023-12-07T19:03:36.267Z,4.18
2023-12-07T19:06:06.934Z,3.80
2023-12-07T19:08:34.798Z,1.85
2023-12-07T19:11:05.187Z,2.00
2023-12-07T19:13:32.853Z,2.17
2023-12-07T19:16:02.631Z,3.00
2023-12-07T19:18:34.225Z,3.03
2023-12-07T19:21:02.433Z,3.50
2023-12-07T19:23:31.579Z,23.35
2023-12-07T19:25:59.298Z,5.38
2023-12-07T19:28:27.027Z,16.00
2023-12-07T19:30:55.033Z,3.90
2023-12-07T19:33:23.272Z,2.88
2023-12-07T19:35:53.331Z,2.67
2023-12-07T19:38:21.223Z,2.28
2023-12-07T19:40:50.252Z,2.22
2023-12-07T19:43:18.169Z,1.60
2023-12-07T19:45:48.244Z,5.82
2023-12-07T19:48:16.072Z,4.50
2023-12-07T19:50:45.889Z,2.50
2023-12-07T19:53:15.922Z,2.28
2023-12-07T19:55:43.599Z,1.55
2023-12-07T19:58:15.126Z,1.70
2023-12-07T20:00:42.798Z,1.90
2023-12-07T20:03:12.875Z,3.90
2023-12-07T20:05:40.627Z,6.78
2023-12-07T20:08:08.269Z,12.77
2023-12-07T20:10:36.104Z,12.65
2023-12-07T20:13:03.839Z,8.30
2023-12-07T20:15:32.887Z,5.28
2023-12-07T20:18:00.759Z,3.38
2023-12-07T20:20:31.574Z,2.40
2023-12-07T20:22:59.467Z,3.65
2023-12-07T20:25:27.144Z,4.82
2023-12-07T20:27:54.778Z,5.38
2023-12-07T20:30:22.499Z,5.13
2023-12-07T20:32:53.895Z,8.90
2023-12-07T20:35:21.613Z,5.85
2023-12-07T20:37:49.350Z,4.00
2023-12-07T20:40:17.038Z,4.63
2023-12-07T20:42:44.824Z,4.20
2023-12-07T20:45:14.551Z,4.13
2023-12-07T20:47:42.325Z,4.22
2023-12-07T20:50:11.474Z,4.05
2023-12-07T20:52:39.109Z,3.97
2023-12-07T20:55:07.387Z,2.63
2023-12-07T20:57:36.188Z,3.22
2023-12-07T21:00:07.456Z,3.50
2023-12-07T21:02:37.561Z,2.15
2023-12-07T21:05:07.848Z,3.30
2023-12-07T21:07:39.137Z,4.25
2023-12-07T21:10:07.211Z,3.35
2023-12-07T21:12:34.862Z,3.25
2023-12-07T21:15:05.670Z,2.60
2023-12-07T21:17:33.584Z,3.08
2023-12-07T21:20:01.332Z,2.85
2023-12-07T21:22:28.961Z,2.30
2023-12-07T21:24:58.927Z,2.22
2023-12-07T21:27:26.848Z,2.83
2023-12-07T21:29:57.103Z,2.40
2023-12-07T21:32:24.785Z,1.98
2023-12-07T21:34:54.785Z,1.25
2023-12-07T21:37:22.570Z,1.92
2023-12-07T21:39:51.340Z,1.48
2023-12-07T21:42:20.366Z,1.63
2023-12-07T21:44:48.108Z,1.65
2023-12-07T21:47:15.979Z,3.08
2023-12-07T21:49:43.618Z,4.28
2023-12-07T21:52:11.253Z,4.43
2023-12-07T21:54:39.013Z,4.03
2023-12-07T21:57:06.616Z,5.20
2023-12-07T21:59:35.670Z,5.13
2023-12-07T22:02:05.636Z,4.90
2023-12-07T22:04:37.113Z,4.38
2023-12-07T22:07:06.040Z,4.40
2023-12-07T22:09:33.869Z,3.17
2023-12-07T22:12:03.982Z,2.72
2023-12-07T22:14:31.657Z,2.20
2023-12-07T22:17:00.682Z,1.75
2023-12-07T22:19:28.324Z,1.80
2023-12-07T22:21:58.332Z,1.70
2023-12-07T22:24:26.043Z,2.35
2023-12-07T22:26:56.170Z,3.05
2023-12-07T22:29:24.247Z,11.23
2023-12-07T22:31:52.592Z,10.48
2023-12-07T22:34:21.916Z,7.68
2023-12-07T22:36:49.775Z,6.55
2023-12-07T22:39:17.558Z,2.75
2023-12-07T22:41:45.302Z,2.55
2023-12-07T22:44:13.241Z,1.48
2023-12-07T22:46:43.238Z,3.95
2023-12-07T22:49:10.981Z,3.90
2023-12-07T22:51:42.221Z,3.55
2023-12-07T22:54:12.028Z,3.90
2023-12-07T22:56:41.845Z,3.90
2023-12-07T22:59:09.506Z,3.35
2023-12-07T23:01:37.114Z,3.08
2023-12-07T23:04:04.904Z,3.42
2023-12-07T23:06:34.905Z,2.72
2023-12-07T23:09:04.311Z,3.45
2023-12-07T23:11:32.032Z,3.50
2023-12-07T23:14:02.082Z,2.95
2023-12-07T23:16:30.250Z,2.58
2023-12-07T23:18:58.143Z,2.53
2023-12-07T23:21:25.997Z,3.03
2023-12-07T23:23:53.643Z,2.78
2023-12-07T23:26:22.633Z,3.47
2023-12-07T23:28:50.436Z,2.72
2023-12-07T23:31:19.010Z,3.00
2023-12-07T23:33:49.343Z,2.47
2023-12-07T23:36:17.498Z,3.45
2023-12-07T23:38:45.262Z,4.18
2023-12-07T23:41:13.279Z,3.33
2023-12-07T23:43:44.433Z,3.35
2023-12-07T23:46:12.507Z,2.90
2023-12-07T23:48:42.612Z,3.00
2023-12-07T23:51:12.579Z,3.00
2023-12-07T23:53:42.463Z,2.72
2023-12-07T23:56:10.837Z,2.88
2023-12-07T23:58:45.205Z,2.47
